Time;durP1;ratioP1;P1;durP2;ratioP2;P2;SDS_P1;SDS_P2;PMS_P1;PMS_P2;Temp;Humidity;BMP_temperature;BMP_pressure;BME280_temperature;BME280_humidity;BME280_pressure;Samples;Min_cycle;Max_cycle;Signal;HPM_P1;HPM_P2
2023/06/01 00:00:09;;;;;;;6.43;3.90;;;18.40;99.90;;;;;;4988156;28;20240;-80
2023/06/01 00:02:53;;;;;;;7.05;4.30;;;18.60;99.90;;;;;;4962850;28;20217;-80
2023/06/01 00:05:21;;;;;;;5.45;4.70;;;18.40;99.90;;;;;;4973228;28;20198;-80
2023/06/01 00:07:48;;;;;;;5.20;4.53;;;18.20;99.90;;;;;;4966888;28;20202;-80
2023/06/01 00:10:15;;;;;;;5.88;4.65;;;18.20;99.90;;;;;;4989608;28;20217;-80
2023/06/01 00:12:43;;;;;;;8.57;5.07;;;18.10;99.90;;;;;;4959677;28;20217;-80
2023/06/01 00:15:11;;;;;;;7.78;4.72;;;18.20;99.90;;;;;;4955723;28;20198;-80
2023/06/01 00:17:38;;;;;;;7.00;4.78;;;18.10;99.90;;;;;;4958179;28;20691;-80
2023/06/01 00:20:08;;;;;;;8.93;4.88;;;17.80;99.90;;;;;;4960311;28;20575;-80
2023/06/01 00:22:38;;;;;;;7.13;5.00;;;17.80;99.90;;;;;;4973414;28;20213;-80
2023/06/01 00:25:07;;;;;;;5.25;4.60;;;17.80;99.90;;;;;;4974622;28;20213;-80
2023/06/01 00:27:35;;;;;;;7.53;5.28;;;17.80;99.90;;;;;;4990933;28;20213;-80
2023/06/01 00:30:03;;;;;;;5.80;4.82;;;17.70;99.90;;;;;;4966474;28;20224;-80
2023/06/01 00:32:30;;;;;;;6.82;5.00;;;17.70;99.90;;;;;;4989904;28;20197;-80
2023/06/01 00:35:01;;;;;;;8.20;5.32;;;17.50;99.90;;;;;;4958067;29;20637;-80
2023/06/01 00:37:29;;;;;;;7.95;5.60;;;17.50;99.90;;;;;;4987133;28;20208;-80
2023/06/01 00:39:57;;;;;;;6.25;5.65;;;17.50;99.90;;;;;;4985054;28;20707;-80
2023/06/01 00:42:25;;;;;;;7.57;5.43;;;17.40;99.90;;;;;;4988257;28;20225;-80
2023/06/01 00:44:53;;;;;;;9.68;5.95;;;17.50;99.90;;;;;;4955221;28;20193;-80
2023/06/01 00:47:21;;;;;;;6.90;5.28;;;17.30;99.90;;;;;;4954143;28;20198;-80
2023/06/01 00:49:49;;;;;;;7.32;5.35;;;17.40;99.90;;;;;;4987370;28;20213;-80
2023/06/01 00:52:17;;;;;;;7.82;5.85;;;17.40;99.90;;;;;;4979831;28;20198;-80
2023/06/01 00:54:46;;;;;;;8.68;5.18;;;17.40;99.90;;;;;;4951772;28;20206;-80
2023/06/01 00:57:13;;;;;;;8.23;5.75;;;17.30;99.90;;;;;;4957070;28;20209;-80
2023/06/01 00:59:41;;;;;;;8.55;6.03;;;17.40;99.90;;;;;;4954806;28;20237;-80
2023/06/01 01:02:09;;;;;;;6.72;6.03;;;17.30;99.90;;;;;;4987188;28;20202;-80
2023/06/01 01:04:37;;;;;;;7.30;5.93;;;17.20;99.90;;;;;;4984968;28;20208;-80
2023/06/01 01:07:20;;;;;;;8.30;5.32;;;17.10;99.90;;;;;;4953103;28;20216;-80
2023/06/01 01:09:57;;;;;;;9.77;5.85;;;17.10;99.90;;;;;;4966790;28;20222;-80
2023/06/01 01:12:31;;;;;;;9.73;5.90;;;16.90;99.90;;;;;;4952884;28;20197;-80
2023/06/01 01:15:08;;;;;;;7.05;5.97;;;16.90;99.90;;;;;;4965507;28;20227;-80
2023/06/01 01:17:42;;;;;;;10.13;6.55;;;16.80;99.90;;;;;;4953797;28;20198;-80
2023/06/01 01:20:15;;;;;;;8.68;5.63;;;16.90;99.90;;;;;;4953662;28;20703;-80
2023/06/01 01:23:00;;;;;;;10.20;7.07;;;17.00;99.90;;;;;;4968972;28;20206;-80
2023/06/01 01:26:10;;;;;;;8.05;6.40;;;16.90;99.90;;;;;;4985812;28;20586;-80
2023/06/01 01:28:43;;;;;;;10.27;6.20;;;16.90;99.90;;;;;;4968678;28;20687;-80
2023/06/01 01:31:13;;;;;;;9.55;5.82;;;17.00;99.90;;;;;;4955053;29;20214;-80
2023/06/01 01:33:42;;;;;;;7.28;6.47;;;17.10;99.90;;;;;;4986273;28;20290;-80
2023/06/01 01:36:10;;;;;;;9.85;6.82;;;17.00;99.90;;;;;;4956684;28;20656;-80
2023/06/01 01:38:38;;;;;;;10.38;6.82;;;16.90;99.90;;;;;;4961737;28;20214;-80
2023/06/01 01:41:06;;;;;;;13.35;7.13;;;16.80;99.90;;;;;;4953897;29;20596;-80
2023/06/01 01:43:33;;;;;;;12.05;7.20;;;16.80;99.90;;;;;;4953157;28;20676;-80
2023/06/01 01:46:11;;;;;;;11.18;7.32;;;16.70;99.90;;;;;;4985261;28;20210;-80
2023/06/01 01:48:44;;;;;;;9.30;6.85;;;16.60;99.90;;;;;;4967041;28;20209;-80
2023/06/01 01:51:28;;;;;;;8.85;6.80;;;16.50;99.90;;;;;;4979720;28;20233;-80
2023/06/01 01:53:57;;;;;;;12.90;8.05;;;16.40;99.90;;;;;;4966221;28;20208;-80
2023/06/01 01:56:25;;;;;;;13.52;7.28;;;16.10;99.90;;;;;;4952253;29;20201;-80
2023/06/01 01:58:54;;;;;;;9.80;7.30;;;16.10;99.90;;;;;;4951883;28;20206;-80
2023/06/01 02:01:24;;;;;;;11.05;7.53;;;16.20;99.90;;;;;;4952551;28;20230;-80
2023/06/01 02:04:00;;;;;;;11.23;7.60;;;16.00;99.90;;;;;;4981115;28;20194;-80
2023/06/01 02:06:27;;;;;;;11.52;7.68;;;16.00;99.90;;;;;;4981421;28;20205;-80
2023/06/01 02:08:55;;;;;;;12.45;8.27;;;15.70;99.90;;;;;;4985369;28;20205;-80
2023/06/01 02:11:23;;;;;;;14.25;8.18;;;15.80;99.90;;;;;;4961611;28;20218;-80
2023/06/01 02:13:53;;;;;;;11.48;8.23;;;15.60;99.90;;;;;;4986890;28;20198;-80
2023/06/01 02:16:21;;;;;;;11.15;8.63;;;15.20;99.90;;;;;;4985976;28;21101;-80
2023/06/01 02:18:50;;;;;;;13.25;9.05;;;15.40;99.90;;;;;;4954534;29;20217;-80
2023/06/01 02:21:28;;;;;;;11.30;8.32;;;15.60;99.90;;;;;;4956328;28;20230;-80
2023/06/01 02:24:04;;;;;;;12.65;8.55;;;15.70;99.90;;;;;;4984647;28;20194;-80
2023/06/01 02:26:32;;;;;;;15.23;9.32;;;15.60;99.90;;;;;;4949563;28;20198;-80
2023/06/01 02:29:02;;;;;;;12.48;8.25;;;15.30;99.90;;;;;;4969720;28;20198;-80
2023/06/01 02:31:29;;;;;;;14.23;8.57;;;15.30;99.90;;;;;;4952541;28;20311;-80
2023/06/01 02:33:58;;;;;;;12.73;9.00;;;15.30;99.90;;;;;;4954664;28;20254;-80
2023/06/01 02:36:26;;;;;;;13.85;9.73;;;15.20;99.90;;;;;;4970277;28;20198;-79
2023/06/01 02:38:54;;;;;;;14.98;10.13;;;15.10;99.90;;;;;;4987154;28;20209;-80
2023/06/01 02:41:21;;;;;;;15.70;10.50;;;15.10;99.90;;;;;;4965372;28;20688;-80
2023/06/01 02:43:51;;;;;;;14.25;10.43;;;14.80;99.90;;;;;;4964261;28;20205;-80
2023/06/01 02:46:18;;;;;;;16.98;10.82;;;14.90;99.90;;;;;;4966645;28;20676;-80
2023/06/01 02:48:46;;;;;;;17.27;11.43;;;15.00;99.90;;;;;;4956916;28;20212;-80
2023/06/01 02:51:15;;;;;;;13.50;9.77;;;14.90;99.90;;;;;;4964752;28;20232;-80
2023/06/01 02:53:45;;;;;;;16.13;10.40;;;14.90;99.90;;;;;;4969647;28;20201;-80
2023/06/01 02:56:14;;;;;;;14.65;10.35;;;14.70;99.90;;;;;;4954026;28;20206;-80
2023/06/01 02:58:53;;;;;;;15.52;10.98;;;14.50;99.90;;;;;;4984961;28;20213;-80
2023/06/01 03:01:26;;;;;;;18.13;10.80;;;14.70;99.90;;;;;;4968803;28;20719;-80
2023/06/01 03:03:54;;;;;;;16.52;10.32;;;14.60;99.90;;;;;;4968076;28;20535;-80
2023/06/01 03:06:23;;;;;;;16.05;10.88;;;14.50;99.90;;;;;;4954674;29;20201;-80
2023/06/01 03:09:12;;;;;;;14.40;9.65;;;14.30;99.90;;;;;;4957532;28;20209;-80
2023/06/01 03:11:53;;;;;;;14.88;9.85;;;14.30;99.90;;;;;;4966188;28;20205;-80
2023/06/01 03:14:21;;;;;;;13.02;10.32;;;14.40;99.90;;;;;;4966242;28;20213;-80
2023/06/01 03:16:49;;;;;;;12.32;8.95;;;14.50;99.90;;;;;;4961412;28;20209;-80
2023/06/01 03:19:22;;;;;;;16.92;9.18;;;14.60;99.90;;;;;;4951739;28;20210;-80
2023/06/01 03:21:54;;;;;;;12.50;9.70;;;14.80;99.90;;;;;;4966956;28;20220;-80
2023/06/01 03:24:27;;;;;;;13.10;9.95;;;14.60;99.90;;;;;;4964427;28;20202;-80
2023/06/01 03:26:55;;;;;;;12.40;9.70;;;14.40;99.90;;;;;;4968185;28;20198;-80
2023/06/01 03:29:24;;;;;;;15.55;9.88;;;14.30;99.90;;;;;;4983143;28;20205;-80
2023/06/01 03:31:52;;;;;;;14.73;9.85;;;14.30;99.90;;;;;;4983076;28;20197;-81
2023/06/01 03:34:22;;;;;;;12.38;9.45;;;14.30;99.90;;;;;;4957541;28;20199;-81
2023/06/01 03:36:50;;;;;;;12.88;8.63;;;14.10;99.90;;;;;;4985525;28;20202;-81
2023/06/01 03:39:19;;;;;;;13.23;9.23;;;14.10;99.90;;;;;;4952579;28;20190;-81
2023/06/01 03:41:47;;;;;;;14.60;9.65;;;14.10;99.90;;;;;;4966615;28;20218;-81
2023/06/01 03:44:15;;;;;;;13.50;9.77;;;14.10;99.90;;;;;;4953191;28;20198;-81
2023/06/01 03:46:43;;;;;;;13.52;8.45;;;14.10;99.90;;;;;;4976873;28;20201;-81
2023/06/01 03:49:10;;;;;;;11.23;8.88;;;14.10;99.90;;;;;;4985578;28;20210;-81
2023/06/01 03:51:39;;;;;;;11.43;8.50;;;13.90;99.90;;;;;;4984418;28;20232;-81
2023/06/01 03:54:06;;;;;;;10.18;8.88;;;14.10;99.90;;;;;;4959666;28;20204;-81
2023/06/01 03:56:36;;;;;;;10.60;9.50;;;14.10;99.90;;;;;;4964520;28;20201;-81
2023/06/01 03:59:03;;;;;;;13.80;9.65;;;14.20;99.90;;;;;;4951633;28;20198;-80
2023/06/01 04:01:32;;;;;;;13.10;9.30;;;14.20;99.90;;;;;;4985451;28;20218;-81
2023/06/01 04:03:59;;;;;;;10.80;8.23;;;14.00;99.90;;;;;;4949405;28;20210;-81
2023/06/01 04:06:29;;;;;;;13.63;9.27;;;14.20;99.90;;;;;;4961475;28;20218;-81
2023/06/01 04:09:00;;;;;;;11.75;9.10;;;14.10;99.90;;;;;;4957782;28;20213;-81
2023/06/01 04:11:28;;;;;;;13.63;9.32;;;14.10;99.90;;;;;;4951700;28;20310;-81
2023/06/01 04:13:57;;;;;;;12.25;9.30;;;14.10;99.90;;;;;;4953338;28;20206;-81
2023/06/01 04:16:25;;;;;;;14.15;8.50;;;14.30;99.90;;;;;;4980339;28;20206;-80
2023/06/01 04:18:53;;;;;;;10.80;9.70;;;14.10;99.90;;;;;;4967162;28;20202;-81
2023/06/01 04:21:27;;;;;;;13.63;9.68;;;14.20;99.90;;;;;;4966703;28;20241;-81
2023/06/01 04:23:54;;;;;;;9.48;7.85;;;14.40;99.90;;;;;;4954054;28;20207;-81
2023/06/01 04:26:24;;;;;;;13.15;8.50;;;14.40;99.90;;;;;;4956163;28;20202;-81
2023/06/01 04:28:56;;;;;;;13.80;9.63;;;14.40;99.90;;;;;;4955799;29;20570;-81
2023/06/01 04:31:25;;;;;;;17.30;9.88;;;14.30;99.90;;;;;;4963662;28;20233;-81
2023/06/01 04:33:53;;;;;;;13.43;10.07;;;14.40;99.90;;;;;;4955790;28;20198;-81
2023/06/01 04:36:22;;;;;;;15.15;9.63;;;14.40;99.90;;;;;;4984636;28;20209;-81
2023/06/01 04:38:54;;;;;;;11.68;8.48;;;14.20;99.90;;;;;;4988096;28;20205;-81
2023/06/01 04:41:24;;;;;;;12.50;9.52;;;14.10;99.90;;;;;;4971308;28;20217;-81
2023/06/01 04:43:53;;;;;;;12.88;9.70;;;14.20;99.90;;;;;;4984736;28;20201;-81
2023/06/01 04:46:23;;;;;;;17.45;10.57;;;13.60;99.90;;;;;;4954091;28;20229;-81
2023/06/01 04:48:52;;;;;;;13.75;10.60;;;13.70;99.90;;;;;;4973793;28;20216;-80
2023/06/01 04:51:26;;;;;;;16.35;11.20;;;13.90;99.90;;;;;;4969149;28;20221;-80
2023/06/01 04:53:55;;;;;;;15.85;12.40;;;13.90;99.90;;;;;;4987687;28;20209;-83
2023/06/01 04:56:25;;;;;;;16.80;13.68;;;13.90;99.90;;;;;;4953988;28;20704;-80
2023/06/01 04:58:52;;;;;;;20.90;14.38;;;13.70;99.90;;;;;;4953887;28;20206;-80
2023/06/01 05:01:24;;;;;;;18.58;12.43;;;13.80;99.90;;;;;;4953673;28;20226;-81
2023/06/01 05:03:55;;;;;;;15.88;11.65;;;13.60;99.90;;;;;;4995125;28;20201;-81
2023/06/01 05:06:24;;;;;;;14.73;11.95;;;13.90;99.90;;;;;;4992081;28;20199;-80
2023/06/01 05:08:55;;;;;;;17.05;11.60;;;13.80;99.90;;;;;;4986620;28;20206;-80
2023/06/01 05:11:24;;;;;;;12.05;8.75;;;14.00;99.90;;;;;;4958840;28;20222;-79
2023/06/01 05:13:54;;;;;;;15.32;11.15;;;14.30;99.90;;;;;;4955903;28;20198;-79
2023/06/01 05:16:22;;;;;;;19.63;12.98;;;14.10;99.90;;;;;;4957496;28;20232;-79
2023/06/01 05:18:52;;;;;;;14.05;11.80;;;14.10;99.90;;;;;;4997145;28;20209;-80
2023/06/01 05:21:21;;;;;;;15.13;12.20;;;14.00;99.90;;;;;;4960689;28;20226;-80
2023/06/01 05:23:49;;;;;;;17.30;11.15;;;13.90;99.90;;;;;;4982827;28;20205;-80
2023/06/01 05:26:16;;;;;;;13.45;10.52;;;13.80;99.90;;;;;;4981151;28;20206;-80
2023/06/01 05:28:44;;;;;;;13.77;9.93;;;13.80;99.90;;;;;;4947021;28;20560;-79
2023/06/01 05:31:13;;;;;;;14.73;10.48;;;13.80;99.90;;;;;;4962359;28;20232;-79
2023/06/01 05:33:53;;;;;;;14.60;10.20;;;13.90;99.90;;;;;;4981904;28;20228;-79
2023/06/01 05:36:23;;;;;;;13.95;10.13;;;13.80;99.90;;;;;;4968114;28;20198;-80
2023/06/01 05:38:50;;;;;;;12.43;9.55;;;14.20;99.90;;;;;;4967997;28;20206;-79
2023/06/01 05:41:18;;;;;;;14.48;9.40;;;14.30;99.90;;;;;;4953916;28;20229;-79
2023/06/01 05:43:45;;;;;;;13.05;8.70;;;14.30;99.90;;;;;;4972235;28;20205;-79
2023/06/01 05:46:16;;;;;;;14.13;9.30;;;14.00;99.90;;;;;;4954475;28;20220;-80
2023/06/01 05:48:44;;;;;;;11.40;8.95;;;13.70;99.90;;;;;;4986580;28;20213;-80
2023/06/01 05:51:14;;;;;;;11.23;8.63;;;14.00;99.90;;;;;;4958257;28;20221;-78
2023/06/01 05:53:45;;;;;;;14.18;10.15;;;13.90;99.90;;;;;;4989020;28;20197;-79
2023/06/01 05:56:13;;;;;;;11.40;8.88;;;14.00;99.90;;;;;;4960028;28;20233;-78
2023/06/01 05:58:40;;;;;;;10.02;8.55;;;14.00;99.90;;;;;;4966372;28;20185;-78
2023/06/01 06:01:09;;;;;;;12.15;8.65;;;14.00;99.90;;;;;;4997076;28;20217;-79
2023/06/01 06:03:38;;;;;;;14.48;9.20;;;14.20;99.90;;;;;;4966216;28;20198;-78
2023/06/01 06:06:05;;;;;;;14.75;8.63;;;14.20;99.90;;;;;;4998286;28;20206;-78
2023/06/01 06:08:33;;;;;;;10.88;8.55;;;14.10;99.90;;;;;;4999705;28;20201;-78
2023/06/01 06:11:02;;;;;;;13.98;9.60;;;14.30;99.90;;;;;;4997884;28;20224;-79
2023/06/01 06:13:30;;;;;;;12.25;8.65;;;14.00;99.90;;;;;;4980989;28;20205;-78
2023/06/01 06:15:57;;;;;;;9.38;7.82;;;14.10;99.90;;;;;;4966879;28;20201;-78
2023/06/01 06:18:25;;;;;;;12.93;9.20;;;14.10;99.90;;;;;;4967490;29;20181;-79
2023/06/01 06:20:53;;;;;;;14.60;9.43;;;14.10;99.90;;;;;;4997794;28;20236;-79
2023/06/01 06:23:20;;;;;;;10.80;8.57;;;14.30;99.90;;;;;;4997154;28;20221;-78
2023/06/01 06:25:49;;;;;;;14.07;9.20;;;14.30;99.90;;;;;;4998353;28;20205;-80
2023/06/01 06:28:18;;;;;;;13.10;8.68;;;14.50;99.90;;;;;;4987519;28;20205;-78
2023/06/01 06:30:45;;;;;;;14.35;9.82;;;14.40;99.90;;;;;;4997929;28;20588;-79
2023/06/01 06:33:13;;;;;;;12.88;9.25;;;14.10;99.90;;;;;;4981977;28;20190;-80
2023/06/01 06:35:41;;;;;;;12.27;8.70;;;14.30;99.90;;;;;;4996789;28;20202;-78
2023/06/01 06:38:11;;;;;;;11.10;8.25;;;14.20;99.90;;;;;;4964512;28;20206;-80
2023/06/01 06:40:38;;;;;;;10.68;8.40;;;14.10;99.90;;;;;;4998417;28;20222;-78
2023/06/01 06:43:06;;;;;;;12.57;8.75;;;14.20;99.90;;;;;;4998096;28;20217;-78
2023/06/01 06:45:35;;;;;;;13.57;9.15;;;14.40;99.90;;;;;;4998002;28;20208;-79
2023/06/01 06:48:02;;;;;;;11.68;9.38;;;14.60;99.90;;;;;;4985179;28;20206;-78
2023/06/01 06:50:30;;;;;;;13.18;8.82;;;14.40;99.90;;;;;;4988591;28;20230;-79
2023/06/01 06:52:59;;;;;;;13.63;8.52;;;14.20;99.90;;;;;;4981535;28;20202;-79
2023/06/01 06:55:26;;;;;;;17.27;8.93;;;14.30;99.90;;;;;;4994965;28;20218;-80
2023/06/01 06:57:54;;;;;;;12.95;8.90;;;14.60;99.90;;;;;;4969557;28;20203;-78
2023/06/01 07:00:23;;;;;;;12.57;8.00;;;14.50;99.90;;;;;;4958371;28;20221;-83
2023/06/01 07:02:52;;;;;;;13.00;8.23;;;14.80;99.90;;;;;;4957040;28;20229;-79
2023/06/01 07:05:20;;;;;;;12.40;9.55;;;14.60;99.90;;;;;;4990249;28;20193;-79
2023/06/01 07:07:52;;;;;;;12.25;7.70;;;14.60;99.90;;;;;;4976382;28;20216;-79
2023/06/01 07:10:19;;;;;;;10.48;8.73;;;14.80;99.90;;;;;;4975606;28;20221;-80
2023/06/01 07:12:48;;;;;;;10.68;8.13;;;14.60;99.90;;;;;;4993619;28;20671;-79
2023/06/01 07:15:16;;;;;;;11.55;8.48;;;14.50;99.90;;;;;;4957148;28;20225;-79
2023/06/01 07:17:43;;;;;;;10.82;8.23;;;14.40;99.90;;;;;;4986831;28;20217;-78
2023/06/01 07:20:13;;;;;;;12.07;7.88;;;14.20;99.90;;;;;;4998662;28;20235;-79
2023/06/01 07:22:40;;;;;;;11.80;9.02;;;14.40;99.90;;;;;;5017951;28;20213;-80
2023/06/01 07:25:09;;;;;;;10.60;8.52;;;14.50;99.90;;;;;;5018678;28;20200;-79
2023/06/01 07:27:37;;;;;;;12.18;8.77;;;14.70;99.90;;;;;;5018172;28;20197;-79
2023/06/01 07:30:07;;;;;;;12.25;8.65;;;14.60;99.90;;;;;;4999659;28;20247;-79
2023/06/01 07:32:35;;;;;;;15.20;9.23;;;14.40;99.90;;;;;;4965834;29;20203;-79
2023/06/01 07:35:04;;;;;;;10.85;8.38;;;14.80;99.90;;;;;;4966982;28;20210;-79
2023/06/01 07:37:33;;;;;;;12.40;9.00;;;14.90;99.90;;;;;;4966461;28;20201;-79
2023/06/01 07:40:01;;;;;;;12.48;9.23;;;14.90;99.90;;;;;;4953069;28;20222;-81
2023/06/01 07:42:28;;;;;;;11.60;8.63;;;15.00;99.90;;;;;;4969430;28;20233;-78
2023/06/01 07:44:56;;;;;;;13.63;8.63;;;14.80;99.90;;;;;;4969586;28;20202;-79
2023/06/01 07:47:25;;;;;;;10.57;8.68;;;14.80;99.90;;;;;;4965039;28;20221;-79
2023/06/01 07:49:53;;;;;;;11.60;8.50;;;15.00;99.90;;;;;;4956232;28;20226;-79
2023/06/01 07:52:20;;;;;;;13.13;8.43;;;15.10;99.90;;;;;;4990844;28;20209;-79
2023/06/01 07:54:49;;;;;;;14.43;9.38;;;15.20;99.90;;;;;;4961699;28;20212;-79
2023/06/01 07:57:17;;;;;;;13.50;8.48;;;15.00;99.90;;;;;;4973855;28;20208;-78
2023/06/01 07:59:44;;;;;;;11.57;8.45;;;15.30;99.90;;;;;;4955121;28;20221;-80
2023/06/01 08:02:13;;;;;;;11.63;8.35;;;15.40;99.90;;;;;;4967150;28;20213;-80
2023/06/01 08:04:40;;;;;;;12.45;8.35;;;15.60;99.90;;;;;;4959367;28;20210;-80
2023/06/01 08:07:09;;;;;;;12.88;8.55;;;15.70;99.90;;;;;;4973267;28;20199;-80
2023/06/01 08:09:38;;;;;;;10.65;8.23;;;15.70;99.90;;;;;;4943410;29;20556;-80
2023/06/01 08:12:08;;;;;;;12.25;9.52;;;15.90;99.90;;;;;;4971414;28;20205;-79
2023/06/01 08:14:35;;;;;;;13.00;9.13;;;15.60;99.90;;;;;;4954325;28;20203;-79
2023/06/01 08:17:03;;;;;;;11.60;8.48;;;15.70;99.90;;;;;;4974862;28;20197;-79
2023/06/01 08:19:31;;;;;;;10.63;8.52;;;15.90;99.90;;;;;;4992916;28;20214;-78
2023/06/01 08:21:58;;;;;;;15.23;8.68;;;15.90;99.90;;;;;;4972152;28;20205;-78
2023/06/01 08:24:26;;;;;;;12.48;9.00;;;15.80;99.90;;;;;;4980105;28;20218;-78
2023/06/01 08:26:56;;;;;;;10.70;8.82;;;15.70;99.90;;;;;;4956071;28;20213;-80
2023/06/01 08:29:25;;;;;;;12.05;8.23;;;15.90;99.90;;;;;;4968911;28;20202;-78
2023/06/01 08:31:52;;;;;;;10.90;8.38;;;16.00;99.90;;;;;;4987039;28;20202;-78
2023/06/01 08:34:20;;;;;;;14.98;8.45;;;15.80;99.90;;;;;;4954797;28;20198;-79
2023/06/01 08:36:48;;;;;;;13.30;9.85;;;16.00;99.90;;;;;;4969984;28;20212;-78
2023/06/01 08:39:23;;;;;;;13.20;8.90;;;15.80;99.90;;;;;;4955506;29;20213;-78
2023/06/01 08:42:02;;;;;;;13.85;9.45;;;16.10;99.90;;;;;;4986787;28;20225;-79
2023/06/01 08:44:36;;;;;;;10.98;8.38;;;15.80;99.90;;;;;;4986544;28;20580;-78
2023/06/01 08:47:39;;;;;;;12.25;8.00;;;16.30;99.90;;;;;;4956219;28;20213;-79
2023/06/01 08:50:09;;;;;;;10.32;7.72;;;16.60;99.90;;;;;;4964887;28;20233;-79
2023/06/01 08:52:38;;;;;;;11.32;7.45;;;17.00;99.90;;;;;;4967309;28;20861;-79
2023/06/01 08:55:07;;;;;;;13.57;8.85;;;17.10;99.90;;;;;;4966054;28;20210;-79
2023/06/01 08:57:35;;;;;;;12.95;8.60;;;17.00;99.90;;;;;;4984623;28;20205;-80
2023/06/01 09:00:05;;;;;;;13.82;8.23;;;16.90;99.90;;;;;;4956122;28;20221;-79
2023/06/01 09:02:33;;;;;;;10.73;8.15;;;17.10;99.90;;;;;;4953029;28;20203;-81
2023/06/01 09:05:00;;;;;;;12.65;9.32;;;17.50;99.90;;;;;;4954646;28;20206;-80
2023/06/01 09:07:29;;;;;;;12.98;8.82;;;17.00;99.90;;;;;;4956122;28;20197;-81
2023/06/01 09:09:56;;;;;;;14.85;10.43;;;16.60;99.90;;;;;;4960822;28;20312;-82
2023/06/01 09:12:28;;;;;;;12.80;9.40;;;16.70;99.90;;;;;;4957607;28;20208;-80
2023/06/01 09:15:19;;;;;;;12.57;8.90;;;16.50;99.90;;;;;;4958226;28;20209;-81
2023/06/01 09:17:49;;;;;;;12.70;10.32;;;16.80;99.90;;;;;;4967828;28;20220;-81
2023/06/01 09:20:27;;;;;;;12.18;9.10;;;16.40;99.90;;;;;;4969819;28;20217;-81
2023/06/01 09:22:56;;;;;;;14.70;9.63;;;16.40;99.90;;;;;;4989146;28;20213;-81
2023/06/01 09:28:57;;;;;;;16.95;10.30;;;16.70;99.90;;;;;;4956487;28;20202;-82
2023/06/01 09:31:40;;;;;;;11.13;8.70;;;16.60;99.90;;;;;;4957228;28;20217;-81
2023/06/01 09:34:21;;;;;;;13.43;9.68;;;17.30;99.90;;;;;;4951373;28;20261;-80
2023/06/01 09:36:55;;;;;;;15.60;11.20;;;17.40;99.90;;;;;;4988444;28;20206;-81
2023/06/01 09:39:24;;;;;;;16.70;11.68;;;16.80;99.90;;;;;;4974460;28;20205;-82
2023/06/01 09:41:53;;;;;;;11.88;8.93;;;17.10;99.90;;;;;;4960415;28;20206;-81
2023/06/01 09:44:28;;;;;;;14.70;10.30;;;17.40;99.90;;;;;;4985486;28;20224;-82
2023/06/01 09:46:58;;;;;;;11.45;8.63;;;17.50;99.90;;;;;;4951389;28;20213;-81
2023/06/01 09:49:27;;;;;;;11.68;9.23;;;17.60;99.90;;;;;;4969096;28;20653;-81
2023/06/01 09:52:09;;;;;;;17.52;10.70;;;17.80;99.90;;;;;;4985856;28;20214;-81
2023/06/01 09:54:39;;;;;;;14.77;10.07;;;17.80;99.90;;;;;;4951617;28;20202;-82
2023/06/01 09:57:08;;;;;;;14.85;10.25;;;17.90;99.90;;;;;;4964284;28;20213;-82
2023/06/01 09:59:40;;;;;;;13.73;11.00;;;17.90;99.90;;;;;;4951571;28;20202;-82
2023/06/01 10:02:13;;;;;;;17.55;11.60;;;17.90;99.90;;;;;;4981276;28;20209;-81
2023/06/01 10:04:42;;;;;;;10.95;9.65;;;18.10;99.90;;;;;;4951807;28;20241;-81
2023/06/01 10:07:13;;;;;;;15.68;9.20;;;17.80;99.90;;;;;;4953268;28;20216;-80
2023/06/01 10:09:42;;;;;;;15.43;10.57;;;17.90;99.90;;;;;;4954540;28;20189;-80
2023/06/01 10:12:10;;;;;;;22.65;11.52;;;17.80;99.90;;;;;;4975795;28;20209;-80
2023/06/01 10:14:38;;;;;;;14.75;9.68;;;17.80;99.90;;;;;;4952397;28;20194;-79
2023/06/01 10:17:45;;;;;;;;;;;;;;;;;;;;;
2023/06/01 10:20:21;;;;;;;21.92;13.45;;;18.30;99.90;;;;;;4965737;28;20233;-80
2023/06/01 10:22:50;;;;;;;14.82;11.38;;;18.50;99.90;;;;;;4964429;28;20569;-80
2023/06/01 10:25:20;;;;;;;17.30;12.98;;;18.50;99.90;;;;;;4985782;28;20214;-80
2023/06/01 10:28:07;;;;;;;;;;;;;;;;;;;;;
2023/06/01 10:30:37;;;;;;;19.48;13.73;;;18.40;99.90;;;;;;4966071;28;20229;-82
2023/06/01 10:33:07;;;;;;;17.20;13.07;;;18.60;99.90;;;;;;4983933;28;20198;-82
2023/06/01 10:36:05;;;;;;;18.98;13.75;;;18.60;99.90;;;;;;4949061;28;20194;-81
2023/06/01 10:38:32;;;;;;;19.38;13.90;;;18.80;99.90;;;;;;4952202;28;20681;-81
2023/06/01 10:41:31;;;;;;;22.20;15.38;;;18.60;99.90;;;;;;4951972;28;20230;-81
2023/06/01 10:44:45;;;;;;;21.33;16.13;;;18.50;99.90;;;;;;4979940;28;20688;-80
2023/06/01 10:47:46;;;;;;;22.92;14.70;;;17.90;99.90;;;;;;4964624;28;20266;-81
2023/06/01 10:50:18;;;;;;;20.52;15.38;;;18.50;99.90;;;;;;4950919;28;20727;-81
2023/06/01 10:52:45;;;;;;;24.63;17.70;;;18.90;99.90;;;;;;4981699;28;20201;-82
2023/06/01 10:55:27;;;;;;;20.38;15.63;;;18.60;99.90;;;;;;4974004;28;20203;-81
2023/06/01 10:58:23;;;;;;;19.17;14.25;;;18.80;99.90;;;;;;4968542;28;20212;-79
2023/06/01 11:00:52;;;;;;;18.17;13.95;;;19.40;99.90;;;;;;4948023;28;20589;-80
2023/06/01 11:03:45;;;;;;;20.73;15.88;;;19.80;99.90;;;;;;4952145;28;20217;-80
2023/06/01 11:06:31;;;;;;;27.33;17.38;;;20.00;99.20;;;;;;4949616;28;20571;-81
2023/06/01 11:09:00;;;;;;;20.08;15.88;;;19.80;99.70;;;;;;4963839;28;20202;-81
2023/06/01 11:11:59;;;;;;;18.88;16.38;;;19.20;99.90;;;;;;4967543;28;20225;-81
2023/06/01 11:14:29;;;;;;;47.47;21.10;;;19.20;99.90;;;;;;4955165;28;20210;-81
2023/06/01 11:17:18;;;;;;;20.27;15.00;;;19.70;99.90;;;;;;4983034;28;20663;-82
2023/06/01 11:19:46;;;;;;;24.10;15.75;;;19.80;99.90;;;;;;4978813;28;20206;-82
2023/06/01 11:22:17;;;;;;;19.85;14.75;;;20.00;99.90;;;;;;4949529;28;20198;-81
2023/06/01 11:24:47;;;;;;;19.67;15.73;;;19.90;99.50;;;;;;4968411;28;20224;-81
2023/06/01 11:27:15;;;;;;;19.70;14.68;;;19.80;99.90;;;;;;4952495;28;20209;-81
2023/06/01 11:29:49;;;;;;;20.77;15.25;;;19.90;99.90;;;;;;4962452;28;20201;-81
2023/06/01 11:32:23;;;;;;;16.08;12.60;;;19.70;99.90;;;;;;4945311;28;20197;-81
2023/06/01 11:34:51;;;;;;;21.55;13.52;;;19.70;99.90;;;;;;4983989;28;20202;-83
2023/06/01 11:37:21;;;;;;;17.13;13.10;;;20.00;99.90;;;;;;4966130;28;20206;-80
2023/06/01 11:39:49;;;;;;;18.23;14.05;;;20.00;99.80;;;;;;4981507;28;20221;-80
2023/06/01 11:42:18;;;;;;;18.98;14.30;;;19.80;99.90;;;;;;4952901;29;20201;-81
2023/06/01 11:44:47;;;;;;;16.85;13.40;;;19.70;99.90;;;;;;4981730;28;20553;-80
2023/06/01 11:47:15;;;;;;;17.83;12.90;;;19.60;99.90;;;;;;4986427;28;20567;-81
2023/06/01 11:49:44;;;;;;;19.27;13.45;;;19.30;99.90;;;;;;4973002;28;20225;-81
2023/06/01 11:52:14;;;;;;;17.77;13.43;;;19.60;99.90;;;;;;4961091;28;20198;-80
2023/06/01 11:54:43;;;;;;;15.32;11.95;;;19.40;99.90;;;;;;4958023;29;20194;-81
2023/06/01 11:57:11;;;;;;;15.00;11.60;;;19.70;99.90;;;;;;4988551;28;20208;-81
2023/06/01 11:59:39;;;;;;;13.13;10.48;;;19.50;99.90;;;;;;4973825;28;20664;-81
2023/06/01 12:02:19;;;;;;;13.90;10.93;;;20.00;99.90;;;;;;4961188;28;20562;-81
2023/06/01 12:04:56;;;;;;;12.48;10.80;;;20.30;99.90;;;;;;4980174;28;20713;-81
2023/06/01 12:07:24;;;;;;;14.77;10.73;;;20.40;98.50;;;;;;4989661;28;20674;-81
2023/06/01 12:09:54;;;;;;;15.18;10.80;;;19.80;99.30;;;;;;4957543;28;20218;-80
2023/06/01 12:12:24;;;;;;;15.63;10.15;;;19.70;99.90;;;;;;4966351;28;20198;-80
2023/06/01 12:14:55;;;;;;;13.00;8.98;;;20.00;99.90;;;;;;4956162;28;20213;-80
2023/06/01 12:17:22;;;;;;;14.40;9.55;;;20.10;99.90;;;;;;4971822;28;20212;-80
2023/06/01 12:19:51;;;;;;;14.63;8.88;;;20.60;99.90;;;;;;4972027;28;20225;-80
2023/06/01 12:22:19;;;;;;;10.48;8.73;;;20.30;99.70;;;;;;4992003;28;20194;-80
2023/06/01 12:24:46;;;;;;;9.85;8.32;;;20.20;99.90;;;;;;4955629;28;20230;-81
